Time;durP1;ratioP1;P1;durP2;ratioP2;P2;SDS_P1;SDS_P2;PMS_P1;PMS_P2;Temp;Humidity;BMP_temperature;BMP_pressure;BME280_temperature;BME280_humidity;BME280_pressure;Samples;Min_cycle;Max_cycle;Signal;HPM_P1;HPM_P2
2021/05/18 00:02:01;;;;;;;31.85;15.55;;;;;;;9.84;100.00;100687.03;5090829;28;20056;-74
2021/05/18 00:04:27;;;;;;;29.65;12.98;;;;;;;9.74;99.68;100681.84;5079676;28;20051;-75
2021/05/18 00:06:53;;;;;;;30.75;12.65;;;;;;;9.72;99.61;100682.97;5088704;28;20043;-74
2021/05/18 00:12:03;;;;;;;30.60;13.63;;;;;;;9.59;100.00;100696.34;5074004;28;20044;-75
2021/05/18 00:14:30;;;;;;;39.35;15.60;;;;;;;9.58;99.60;100693.88;5087150;28;20098;-74
2021/05/18 00:16:57;;;;;;;30.55;14.77;;;;;;;9.58;100.00;100707.78;5059329;28;20048;-74
2021/05/18 00:19:23;;;;;;;32.67;14.77;;;;;;;9.66;99.92;100701.84;5076870;28;20476;-77
2021/05/18 00:21:49;;;;;;;38.70;16.23;;;;;;;9.57;99.73;100713.16;5049255;28;20047;-75
2021/05/18 00:24:14;;;;;;;33.78;15.80;;;;;;;9.61;99.95;100711.94;5088532;28;20052;-76
2021/05/18 00:26:40;;;;;;;33.92;14.75;;;;;;;9.48;99.06;100704.38;5055946;28;20072;-76
2021/05/18 00:29:07;;;;;;;34.17;14.65;;;;;;;9.43;98.94;100719.66;5076052;28;20048;-77
2021/05/18 00:31:33;;;;;;;30.75;14.85;;;;;;;9.32;99.80;100715.41;5076148;28;20842;-77
2021/05/18 00:33:59;;;;;;;38.60;14.23;;;;;;;9.27;99.57;100715.81;5069637;28;20055;-77
2021/05/18 00:36:25;;;;;;;33.25;13.30;;;;;;;9.28;99.70;100730.56;5072007;28;20035;-75
2021/05/18 00:38:51;;;;;;;26.42;13.18;;;;;;;9.35;99.19;100730.84;5065750;28;20036;-76
2021/05/18 00:41:17;;;;;;;29.90;12.90;;;;;;;9.21;100.00;100745.19;5083252;28;20044;-76
2021/05/18 00:43:43;;;;;;;31.27;12.60;;;;;;;9.15;99.14;100737.84;5062114;28;20053;-75
2021/05/18 00:46:09;;;;;;;26.10;12.30;;;;;;;9.18;100.00;100742.00;5076421;28;20036;-75
2021/05/18 00:48:35;;;;;;;29.45;12.10;;;;;;;9.15;99.71;100743.09;5052888;28;20043;-77
2021/05/18 00:51:05;;;;;;;33.50;12.00;;;;;;;9.09;99.01;100739.22;5059525;28;20047;-77
2021/05/18 00:53:30;;;;;;;26.77;11.45;;;;;;;9.04;99.38;100738.84;5073522;28;20047;-76
2021/05/18 00:56:04;;;;;;;24.27;11.45;;;;;;;9.09;99.51;100748.88;5069831;28;20054;-77
2021/05/18 00:58:39;;;;;;;22.15;10.95;;;;;;;8.99;98.32;100741.03;5083909;28;20048;-76
2021/05/18 01:01:18;;;;;;;18.88;10.00;;;;;;;9.01;99.62;100757.41;5064234;28;20047;-76
2021/05/18 01:03:51;;;;;;;28.02;9.43;;;;;;;8.93;99.08;100747.63;5069171;28;20780;-77
2021/05/18 01:06:40;;;;;;;19.63;9.52;;;;;;;8.97;99.71;100758.66;5070122;28;20044;-77
2021/05/18 01:09:09;;;;;;;22.50;9.57;;;;;;;8.86;98.92;100764.81;5083567;28;20115;-76
2021/05/18 01:11:39;;;;;;;29.05;10.77;;;;;;;8.84;98.21;100765.91;5044519;28;20497;-76
2021/05/18 01:14:10;;;;;;;27.83;10.73;;;;;;;8.83;99.72;100765.06;5066399;28;20745;-76
2021/05/18 01:16:40;;;;;;;25.35;10.52;;;;;;;8.80;100.00;100774.97;5063091;28;20109;-76
2021/05/18 01:19:06;;;;;;;29.23;11.20;;;;;;;8.90;98.48;100770.59;5066703;28;20040;-74
2021/05/18 01:21:32;;;;;;;23.52;10.45;;;;;;;8.83;99.53;100774.72;5061135;28;20047;-76
2021/05/18 01:23:58;;;;;;;27.80;10.10;;;;;;;8.89;99.36;100779.41;5083331;28;20048;-75
2021/05/18 01:26:25;;;;;;;26.75;10.30;;;;;;;8.80;98.55;100786.28;5031981;28;20050;-76
2021/05/18 01:28:52;;;;;;;26.38;10.55;;;;;;;8.77;99.48;100776.91;5058291;28;20044;-77
2021/05/18 01:31:21;;;;;;;24.30;10.55;;;;;;;8.77;100.00;100784.75;5059036;28;20459;-75
2021/05/18 01:33:48;;;;;;;21.83;10.38;;;;;;;8.72;98.45;100786.97;5045139;28;20139;-75
2021/05/18 01:36:18;;;;;;;26.73;10.90;;;;;;;8.72;99.64;100793.94;5049196;28;20056;-76
2021/05/18 01:38:53;;;;;;;27.80;10.27;;;;;;;8.69;97.98;100802.09;5059548;28;20139;-76
2021/05/18 01:44:05;;;;;;;24.95;10.30;;;;;;;8.75;98.27;100802.34;5057574;28;20545;-75
2021/05/18 01:46:32;;;;;;;22.30;9.73;;;;;;;8.73;98.93;100809.50;5062711;28;20040;-76
2021/05/18 01:49:02;;;;;;;25.58;10.15;;;;;;;8.70;96.74;100808.94;5050696;28;20032;-78
2021/05/18 01:51:41;;;;;;;14.98;8.82;;;;;;;8.63;97.52;100815.69;5061300;28;20051;-76
2021/05/18 01:54:11;;;;;;;22.88;9.70;;;;;;;8.70;97.94;100817.66;5066956;28;20060;-76
2021/05/18 01:59:12;;;;;;;25.17;10.88;;;;;;;8.69;98.18;100820.38;5075731;28;20907;-76
2021/05/18 02:01:43;;;;;;;24.33;10.55;;;;;;;8.69;98.65;100830.84;5063532;28;20042;-76
2021/05/18 02:04:20;;;;;;;25.30;10.80;;;;;;;8.66;98.52;100829.31;5073111;28;20505;-76
2021/05/18 02:06:45;;;;;;;20.67;11.07;;;;;;;8.63;99.50;100834.81;5088713;28;20137;-75
2021/05/18 02:09:14;;;;;;;25.85;10.73;;;;;;;8.62;99.89;100833.16;5079778;28;20036;-75
2021/05/18 02:11:44;;;;;;;27.52;11.20;;;;;;;8.60;97.86;100835.06;5040630;28;20036;-75
2021/05/18 02:14:17;;;;;;;19.25;9.85;;;;;;;8.56;97.72;100834.50;5030573;28;20410;-76
2021/05/18 02:16:45;;;;;;;21.85;10.25;;;;;;;8.55;98.15;100835.47;5071025;28;20040;-76
2021/05/18 02:25:00;;;;;;;26.58;11.38;;;;;;;8.45;98.96;100854.69;5071043;28;20135;-77
2021/05/18 02:27:38;;;;;;;21.83;10.13;;;;;;;8.44;98.02;100859.09;5067939;28;20047;-76
2021/05/18 02:30:07;;;;;;;20.27;9.73;;;;;;;8.42;97.62;100857.53;5077117;28;20070;-77
2021/05/18 02:32:33;;;;;;;24.90;10.57;;;;;;;8.46;98.07;100859.78;5067274;28;20515;-76
2021/05/18 02:35:12;;;;;;;20.30;10.50;;;;;;;8.45;98.32;100871.19;5054751;28;20062;-75
2021/05/18 02:37:39;;;;;;;22.63;9.95;;;;;;;8.44;98.81;100868.69;5083989;28;20094;-76
2021/05/18 02:40:14;;;;;;;17.85;9.50;;;;;;;8.43;97.66;100873.09;5046851;28;20524;-75
2021/05/18 02:42:40;;;;;;;19.20;9.07;;;;;;;8.37;97.70;100874.41;5067978;28;20039;-74
2021/05/18 02:45:16;;;;;;;20.13;9.77;;;;;;;8.33;98.34;100877.44;5073298;28;20075;-76
2021/05/18 02:50:26;;;;;;;18.85;9.32;;;;;;;8.31;97.83;100874.13;5085160;28;20044;-76
2021/05/18 02:52:52;;;;;;;21.30;8.77;;;;;;;8.28;98.67;100876.97;5054239;28;20036;-76
2021/05/18 02:55:32;;;;;;;16.70;8.27;;;;;;;8.29;98.96;100882.06;5072138;28;20134;-75
2021/05/18 02:57:58;;;;;;;22.85;8.63;;;;;;;8.31;98.42;100885.38;5052453;28;20055;-76
2021/05/18 03:00:24;;;;;;;20.00;6.97;;;;;;;8.25;97.90;100883.28;5101565;28;20150;-76
2021/05/18 03:02:51;;;;;;;17.52;6.75;;;;;;;8.27;96.71;100883.16;5096307;28;20036;-75
2021/05/18 03:05:18;;;;;;;14.25;4.93;;;;;;;8.27;93.16;100896.22;5072115;28;20148;-76
2021/05/18 03:07:44;;;;;;;16.63;6.55;;;;;;;8.18;95.26;100890.81;5089106;28;20127;-75
2021/05/18 03:10:11;;;;;;;14.45;5.57;;;;;;;8.17;96.31;100894.38;5077449;28;20166;-76
2021/05/18 03:12:37;;;;;;;15.65;5.38;;;;;;;8.15;96.97;100888.44;5057354;28;20049;-76
2021/05/18 03:15:03;;;;;;;11.73;5.50;;;;;;;8.19;96.59;100896.84;5052826;28;20045;-75
2021/05/18 03:17:30;;;;;;;14.82;5.65;;;;;;;8.17;94.53;100898.75;5062462;28;20044;-75
2021/05/18 03:19:56;;;;;;;15.63;6.32;;;;;;;8.14;96.11;100902.47;5079886;28;20135;-75
2021/05/18 03:22:22;;;;;;;10.15;5.13;;;;;;;8.16;94.47;100904.97;5072298;28;20122;-75
2021/05/18 03:24:47;;;;;;;21.40;6.75;;;;;;;8.11;96.83;100913.16;5086758;28;20048;-74
2021/05/18 03:27:13;;;;;;;17.63;5.68;;;;;;;7.99;96.71;100912.41;5068924;28;20497;-75
2021/05/18 03:29:40;;;;;;;23.65;6.20;;;;;;;8.03;97.71;100915.59;5073023;28;20097;-75
2021/05/18 03:34:50;;;;;;;10.65;5.80;;;;;;;8.05;97.17;100912.84;5086609;28;20036;-76
2021/05/18 03:37:26;;;;;;;14.35;5.40;;;;;;;8.02;96.58;100911.31;5055715;28;20075;-74
2021/05/18 03:39:56;;;;;;;9.25;4.40;;;;;;;8.08;94.43;100915.19;5056768;28;20043;-75
2021/05/18 03:42:26;;;;;;;10.30;5.25;;;;;;;8.03;95.14;100920.81;5074213;28;20035;-76
2021/05/18 04:03:56;;;;;;;9.65;3.83;;;;;;;7.86;96.06;100932.63;5099282;28;20048;-75
2021/05/18 04:12:04;;;;;;;10.70;3.78;;;;;;;7.60;96.04;100927.72;5063452;28;20036;-76
2021/05/18 04:17:14;;;;;;;12.38;4.70;;;;;;;7.54;97.08;100945.66;5090119;28;20056;-76
2021/05/18 04:19:49;;;;;;;9.02;4.25;;;;;;;7.56;97.56;100938.53;5068152;28;20040;-74
2021/05/18 04:22:27;;;;;;;12.32;4.50;;;;;;;7.54;97.64;100927.38;5062557;28;20098;-76
2021/05/18 04:38:54;;;;;;;8.55;4.40;;;;;;;7.77;95.89;100949.03;5050951;28;20059;-76
2021/05/18 04:52:19;;;;;;;17.30;6.00;;;;;;;8.07;95.05;100956.19;5059899;28;20078;-75
2021/05/18 05:00:27;;;;;;;16.77;5.70;;;;;;;8.32;95.26;100962.81;5075997;28;20073;-75
2021/05/18 05:15:42;;;;;;;16.35;6.03;;;;;;;8.53;93.79;100988.19;5071739;28;20040;-75
2021/05/18 05:18:11;;;;;;;13.43;5.70;;;;;;;8.64;93.07;100982.88;5079498;28;20057;-78
2021/05/18 05:20:37;;;;;;;12.18;5.90;;;;;;;8.67;94.45;100993.09;5040377;28;20035;-75
2021/05/18 05:23:03;;;;;;;13.30;5.30;;;;;;;8.74;93.30;100991.63;5069476;28;20556;-75
2021/05/18 05:25:29;;;;;;;15.52;5.35;;;;;;;8.79;93.91;100991.25;5068292;28;20072;-75
2021/05/18 05:27:55;;;;;;;11.38;4.53;;;;;;;8.74;94.08;100994.25;5082759;28;20439;-75
2021/05/18 05:30:21;;;;;;;13.35;4.45;;;;;;;8.71;93.18;100988.44;5059891;28;20040;-76
2021/05/18 05:32:46;;;;;;;10.57;4.80;;;;;;;8.73;94.57;100989.16;5061332;28;20035;-74
2021/05/18 05:35:12;;;;;;;16.27;5.68;;;;;;;8.89;92.42;100988.66;5090937;28;20048;-74
2021/05/18 05:37:38;;;;;;;13.30;4.88;;;;;;;9.07;93.11;100996.75;5107152;28;20458;-77
2021/05/18 05:40:05;;;;;;;11.60;4.90;;;;;;;9.16;92.26;100996.00;5093767;28;20039;-76
2021/05/18 05:42:31;;;;;;;11.63;5.22;;;;;;;9.25;92.27;101000.44;5068976;28;20118;-75
2021/05/18 05:44:57;;;;;;;14.55;4.95;;;;;;;9.44;90.28;101006.72;5092339;28;20035;-76
2021/05/18 05:47:22;;;;;;;13.05;4.68;;;;;;;9.54;88.81;101002.31;5075393;28;20043;-75
2021/05/18 05:49:48;;;;;;;12.27;4.75;;;;;;;9.59;90.33;100999.28;5089724;28;20044;-76
2021/05/18 05:52:18;;;;;;;14.13;4.97;;;;;;;9.74;89.42;100997.97;5041661;28;20040;-75
2021/05/18 05:54:44;;;;;;;16.27;5.43;;;;;;;9.73;90.95;100999.75;5095361;28;20040;-76
2021/05/18 05:57:09;;;;;;;17.75;4.55;;;;;;;9.87;88.41;100998.53;5091520;28;20046;-76
2021/05/18 05:59:35;;;;;;;13.63;4.45;;;;;;;10.05;84.85;101005.72;5079138;28;20043;-75
2021/05/18 06:02:03;;;;;;;12.57;4.78;;;;;;;10.16;86.63;101002.97;5055335;28;20123;-77
2021/05/18 06:04:29;;;;;;;14.77;5.30;;;;;;;10.32;86.63;101003.31;5070133;28;20039;-75
2021/05/18 06:06:54;;;;;;;12.32;4.70;;;;;;;10.42;85.76;101005.91;5051340;28;20512;-76
2021/05/18 06:09:20;;;;;;;15.70;4.65;;;;;;;10.59;84.35;101004.38;5086626;28;20048;-74
2021/05/18 06:41:46;;;;;;;11.82;4.50;;;;;;;12.00;79.40;101028.88;5055395;28;20040;-75
2021/05/18 06:47:01;;;;;;;10.02;4.72;;;;;;;11.84;79.74;101032.94;5072911;28;20044;-77
2021/05/18 06:49:27;;;;;;;14.82;4.45;;;;;;;12.17;80.82;101037.75;5054650;28;20051;-77
2021/05/18 06:51:52;;;;;;;14.32;5.38;;;;;;;12.48;76.03;101034.72;5089746;28;20460;-76
2021/05/18 06:54:18;;;;;;;12.38;5.00;;;;;;;12.83;75.92;101037.31;5075925;28;20127;-77
2021/05/18 06:56:46;;;;;;;7.25;4.00;;;;;;;12.79;75.32;101040.38;5065565;28;20048;-76
2021/05/18 07:01:43;;;;;;;9.32;3.92;;;;;;;12.69;74.95;101044.94;5072297;28;20122;-77
2021/05/18 07:04:09;;;;;;;12.02;3.95;;;;;;;12.81;73.71;101047.16;5090975;28;20130;-75
2021/05/18 07:06:52;;;;;;;15.40;4.45;;;;;;;13.00;75.69;101051.41;5090640;28;20452;-75
2021/05/18 07:09:18;;;;;;;;;;;;;;;12.98;76.05;101048.09;5094810;28;20051;-74
2021/05/18 07:11:43;;;;;;;9.27;4.15;;;;;;;12.95;76.12;101058.94;5109302;28;19939;-74
2021/05/18 07:14:09;;;;;;;12.65;4.45;;;;;;;12.85;77.88;101059.03;5054501;28;20051;-75
2021/05/18 07:16:35;;;;;;;9.82;4.35;;;;;;;12.81;79.71;101062.97;5059042;28;20473;-78
2021/05/18 07:19:03;;;;;;;9.52;3.95;;;;;;;12.84;79.06;101067.06;5052097;28;20123;-76
2021/05/18 07:21:28;;;;;;;8.35;4.60;;;;;;;12.75;76.54;101063.56;5047161;28;20424;-75
2021/05/18 07:23:54;;;;;;;11.55;4.70;;;;;;;12.62;75.04;101061.34;5055876;28;20050;-76
2021/05/18 07:26:20;;;;;;;10.80;5.00;;;;;;;12.49;74.17;101067.94;5059459;28;22056;-76
2021/05/18 07:28:45;;;;;;;10.20;5.15;;;;;;;12.40;74.67;101065.25;5092293;28;20036;-74
2021/05/18 07:31:11;;;;;;;8.25;4.88;;;;;;;12.37;77.02;101072.59;5075469;28;20124;-76
2021/05/18 07:33:37;;;;;;;8.82;4.72;;;;;;;12.46;78.55;101076.97;5057447;28;20036;-76
2021/05/18 07:36:09;;;;;;;9.30;5.30;;;;;;;12.52;75.19;101076.34;5090064;28;20118;-77
2021/05/18 07:38:41;;;;;;;10.93;4.97;;;;;;;12.52;78.73;101075.53;5070354;28;20149;-75
2021/05/18 07:41:08;;;;;;;9.38;4.78;;;;;;;12.48;75.81;101077.66;5070526;28;20067;-74
2021/05/18 07:43:34;;;;;;;11.88;5.03;;;;;;;12.49;74.67;101081.94;5071079;28;20048;-77
2021/05/18 07:46:02;;;;;;;11.43;4.88;;;;;;;12.57;76.60;101082.00;5072455;28;20051;-75
2021/05/18 08:07:09;;;;;;;9.65;4.65;;;;;;;12.93;70.19;101078.50;5071998;28;20031;-76
2021/05/18 08:09:41;;;;;;;8.95;4.40;;;;;;;12.62;72.59;101079.75;5077048;28;20047;-75
2021/05/18 08:12:07;;;;;;;9.65;4.57;;;;;;;12.51;76.47;101082.63;5087631;28;20044;-76
2021/05/18 08:14:35;;;;;;;9.02;4.50;;;;;;;12.53;73.48;101077.22;5088643;28;20434;-76
2021/05/18 08:17:13;;;;;;;8.23;5.28;;;;;;;12.49;73.13;101089.84;5073979;28;20048;-75
2021/05/18 08:20:21;;;;;;;10.93;4.85;;;;;;;12.58;73.43;101083.66;5069972;28;20047;-76
2021/05/18 10:17:41;;;;;;;5.25;2.60;;;;;;;11.83;72.22;101120.66;5068435;28;20074;-75
2021/05/18 10:38:29;;;;;;;4.13;2.30;;;;;;;12.57;72.11;101131.19;5062683;28;20158;-75
2021/05/18 10:41:28;;;;;;;3.88;2.00;;;;;;;12.60;72.73;101129.09;5053726;28;20087;-75
2021/05/18 10:43:59;;;;;;;5.95;2.60;;;;;;;12.77;72.95;101129.19;5081663;28;20040;-76
2021/05/18 10:46:28;;;;;;;4.55;2.17;;;;;;;13.01;71.11;101123.31;5067710;28;20079;-76
2021/05/18 10:49:05;;;;;;;3.05;2.38;;;;;;;13.18;69.58;101125.09;5068412;28;20098;-75
2021/05/18 10:51:39;;;;;;;5.95;2.60;;;;;;;13.43;65.81;101123.47;5072123;28;20036;-75
2021/05/18 10:54:08;;;;;;;5.00;2.22;;;;;;;13.71;67.89;101122.47;5089751;28;20032;-75
2021/05/18 10:56:52;;;;;;;4.30;2.08;;;;;;;13.97;64.12;101131.13;5060592;28;20040;-76
2021/05/18 10:59:18;;;;;;;4.30;2.33;;;;;;;14.18;62.29;101130.72;5062644;28;20128;-75
2021/05/18 11:01:44;;;;;;;3.97;1.95;;;;;;;14.43;63.86;101135.22;5054609;28;20044;-75
2021/05/18 11:04:09;;;;;;;4.50;2.25;;;;;;;14.50;62.31;101118.56;5069763;28;20513;-75
2021/05/18 11:06:56;;;;;;;4.13;2.28;;;;;;;14.72;62.45;101122.41;5052454;28;20055;-74
2021/05/18 11:09:23;;;;;;;3.17;2.42;;;;;;;15.16;59.69;101121.25;5051266;28;20048;-76
2021/05/18 11:11:57;;;;;;;5.97;2.08;;;;;;;15.92;56.47;101124.38;5045467;28;20064;-75
2021/05/18 11:14:38;;;;;;;8.43;2.40;;;;;;;16.16;56.29;101115.47;5072714;28;20048;-75
2021/05/18 11:17:21;;;;;;;3.00;2.13;;;;;;;16.14;52.88;101126.25;5072232;28;20047;-75
2021/05/18 11:19:58;;;;;;;6.13;2.53;;;;;;;15.63;55.73;101124.94;5093922;28;20114;-75
2021/05/18 11:26:18;;;;;;;3.42;2.25;;;;;;;14.66;62.02;101130.19;5088940;27;20346;-78
2021/05/18 11:28:46;;;;;;;2.65;1.60;;;;;;;14.46;60.27;101121.72;5083951;28;20094;-76
2021/05/18 11:31:19;;;;;;;4.30;1.67;;;;;;;14.46;55.57;101130.44;5071081;28;20533;-77
2021/05/18 11:33:49;;;;;;;1.58;1.45;;;;;;;14.51;58.41;101129.97;5035246;28;20471;-76
2021/05/18 11:36:18;;;;;;;3.35;1.40;;;;;;;14.54;61.05;101117.28;5028314;28;20127;-78
2021/05/18 11:38:55;;;;;;;3.40;1.65;;;;;;;14.55;63.08;101124.19;5060519;28;20044;-79
2021/05/18 11:41:25;;;;;;;3.05;2.00;;;;;;;14.58;59.81;101126.53;5043433;28;20049;-78
2021/05/18 11:43:54;;;;;;;3.80;1.98;;;;;;;14.56;60.64;101115.28;5048211;28;20044;-77
2021/05/18 11:46:20;;;;;;;2.17;1.95;;;;;;;14.97;61.47;101119.78;5023998;28;20356;-77
2021/05/18 11:48:56;;;;;;;4.35;2.58;;;;;;;15.23;61.98;101132.78;5049136;28;20037;-76
2021/05/18 11:51:22;;;;;;;7.10;2.90;;;;;;;14.97;63.23;101135.63;5047767;28;20137;-78
2021/05/18 11:53:53;;;;;;;4.03;3.25;;;;;;;14.76;59.46;101130.84;5024596;28;20085;-76
2021/05/18 11:56:26;;;;;;;5.65;3.38;;;;;;;14.32;59.24;101139.00;5040106;28;20043;-78
2021/05/18 11:59:08;;;;;;;3.90;3.05;;;;;;;14.19;63.65;101140.28;5042116;28;20072;-77
2021/05/18 12:01:47;;;;;;;6.85;3.00;;;;;;;14.31;66.41;101139.97;5063418;28;20049;-78
2021/05/18 12:04:15;;;;;;;3.58;2.70;;;;;;;14.35;63.44;101138.66;5045253;28;20503;-78
2021/05/18 12:06:55;;;;;;;4.15;2.47;;;;;;;14.37;63.47;101134.06;5046351;28;20517;-77
2021/05/18 12:09:20;;;;;;;2.55;2.13;;;;;;;14.53;63.75;101139.38;5041991;28;20045;-78
2021/05/18 12:11:57;;;;;;;2.65;2.10;;;;;;;14.63;61.21;101136.59;5041406;28;20048;-79
2021/05/18 12:14:25;;;;;;;4.18;2.53;;;;;;;14.55;60.53;101144.50;5034361;28;20059;-78
2021/05/18 12:16:51;;;;;;;4.68;2.30;;;;;;;14.57;59.90;101137.25;5043777;28;20048;-78
2021/05/18 12:19:18;;;;;;;6.75;2.28;;;;;;;14.84;62.01;101137.94;5042208;28;20098;-78
2021/05/18 12:21:48;;;;;;;4.80;2.50;;;;;;;15.16;58.26;101143.22;5043653;28;20120;-78
2021/05/18 12:24:16;;;;;;;4.68;2.55;;;;;;;15.26;60.08;101135.13;5040558;28;20391;-78
2021/05/18 12:26:49;;;;;;;4.05;2.20;;;;;;;15.43;59.59;101141.19;5040227;28;20073;-79
2021/05/18 12:29:26;;;;;;;4.90;2.83;;;;;;;15.32;62.02;101138.91;5042443;28;20053;-78
2021/05/18 12:31:52;;;;;;;6.82;3.20;;;;;;;15.23;59.69;101138.09;5042829;28;20045;-79
2021/05/18 12:34:30;;;;;;;8.15;4.15;;;;;;;15.29;58.44;101141.88;5043555;28;20037;-77
2021/05/18 12:36:56;;;;;;;6.53;3.28;;;;;;;15.40;62.53;101149.44;5029833;28;20487;-78
2021/05/18 12:39:22;;;;;;;5.47;3.00;;;;;;;15.45;59.23;101146.31;5031183;28;20049;-80
2021/05/18 12:41:56;;;;;;;5.78;3.28;;;;;;;15.42;59.54;101146.66;5034614;28;20522;-78
2021/05/18 12:44:30;;;;;;;9.73;3.15;;;;;;;15.47;57.41;101150.44;5031042;28;20051;-78
2021/05/18 12:47:03;;;;;;;3.53;2.55;;;;;;;15.49;59.16;101147.63;5035784;28;20515;-78
2021/05/18 12:49:35;;;;;;;;;;;;;;;15.50;59.41;101146.63;5020571;28;20048;-76
2021/05/18 12:52:03;;;;;;;3.75;2.20;;;;;;;15.30;59.45;101154.94;5035407;28;20027;-78
2021/05/18 12:54:52;;;;;;;4.93;2.50;;;;;;;14.92;56.93;101151.97;5041011;28;20053;-77
2021/05/18 12:57:21;;;;;;;3.80;2.30;;;;;;;14.64;62.93;101153.28;5046036;28;20045;-79
2021/05/18 13:00:10;;;;;;;5.22;2.40;;;;;;;14.64;61.38;101143.53;5029466;28;20037;-78
2021/05/18 13:02:41;;;;;;;7.55;2.38;;;;;;;14.48;63.35;101149.56;5030553;28;20049;-78
2021/05/18 13:05:09;;;;;;;5.97;2.72;;;;;;;14.30;62.50;101147.06;5029494;28;20045;-77
2021/05/18 13:07:35;;;;;;;3.33;2.60;;;;;;;14.30;64.71;101155.00;5020086;28;20054;-77
2021/05/18 13:10:44;;;;;;;4.75;2.63;;;;;;;14.31;68.12;101155.81;5007639;28;20042;-77
2021/05/18 13:13:10;;;;;;;7.20;2.67;;;;;;;14.25;62.81;101156.47;5022087;28;20076;-76
2021/05/18 13:15:36;;;;;;;3.25;2.40;;;;;;;14.21;64.53;101151.50;5027414;28;21395;-77
2021/05/18 13:18:05;;;;;;;4.18;2.20;;;;;;;14.23;67.11;101158.44;4996562;28;20045;-79
2021/05/18 13:21:01;;;;;;;3.13;2.00;;;;;;;14.24;68.04;101157.44;5022942;28;20038;-78
2021/05/18 13:23:42;;;;;;;3.42;2.00;;;;;;;14.14;67.87;101168.94;5029120;28;20068;-76
2021/05/18 13:26:27;;;;;;;2.35;1.83;;;;;;;14.08;66.19;101166.94;5046905;28;20041;-77
2021/05/18 13:29:00;;;;;;;6.13;2.00;;;;;;;14.14;66.39;101166.31;5026462;28;20962;-75
2021/05/18 13:31:28;;;;;;;3.13;1.40;;;;;;;14.19;66.24;101171.13;4990822;28;20053;-77
2021/05/18 13:33:54;;;;;;;1.60;1.10;;;;;;;13.98;64.35;101163.63;4991574;28;20041;-78
2021/05/18 13:36:20;;;;;;;1.33;1.08;;;;;;;14.02;67.17;101171.06;4984737;28;20440;-75
2021/05/18 13:38:46;;;;;;;1.10;1.10;;;;;;;13.86;66.67;101170.97;5004281;28;20051;-77
2021/05/18 13:41:12;;;;;;;1.88;1.20;;;;;;;13.69;68.14;101177.16;5006341;28;20050;-77
2021/05/18 13:43:37;;;;;;;1.90;1.55;;;;;;;13.42;67.92;101171.88;5000985;28;20482;-77
2021/05/18 13:46:03;;;;;;;7.30;1.55;;;;;;;13.40;70.92;101178.28;5016839;28;20037;-77
2021/05/18 13:48:29;;;;;;;2.40;1.80;;;;;;;13.30;69.98;101166.97;5004950;28;20071;-76
2021/05/18 13:50:55;;;;;;;1.92;1.55;;;;;;;13.23;71.09;101170.22;5005800;28;20524;-77
2021/05/18 13:53:22;;;;;;;2.20;1.50;;;;;;;12.97;69.90;101170.19;5007584;28;20077;-77
2021/05/18 13:55:48;;;;;;;2.22;1.77;;;;;;;12.87;71.62;101169.47;4986152;28;20065;-77
2021/05/18 13:58:14;;;;;;;3.20;1.70;;;;;;;12.81;71.34;101167.44;5008268;28;20531;-78
2021/05/18 14:00:40;;;;;;;3.67;2.13;;;;;;;12.82;71.34;101167.25;4997828;28;20045;-78
2021/05/18 14:03:05;;;;;;;1.80;1.52;;;;;;;12.86;71.32;101175.69;5007440;28;20053;-78
2021/05/18 14:05:31;;;;;;;2.65;1.90;;;;;;;13.00;72.96;101174.34;5001571;28;20152;-79
2021/05/18 14:08:35;;;;;;;3.72;1.70;;;;;;;13.15;72.76;101170.19;5025132;28;20053;-76
2021/05/18 14:11:09;;;;;;;1.90;1.77;;;;;;;13.40;69.07;101168.56;5025761;28;20088;-78
2021/05/18 14:13:43;;;;;;;2.03;1.83;;;;;;;13.56;68.99;101180.19;5027979;28;20057;-79
2021/05/18 14:16:10;;;;;;;2.65;1.70;;;;;;;13.72;70.17;101161.03;5027363;28;20056;-77
2021/05/18 14:18:38;;;;;;;3.30;1.75;;;;;;;14.07;67.96;101170.59;5022368;28;20037;-78
2021/05/18 14:21:04;;;;;;;2.70;1.83;;;;;;;14.18;67.44;101174.72;5021270;28;20044;-77
2021/05/18 14:24:21;;;;;;;3.25;2.00;;;;;;;14.45;65.16;101164.91;5028528;28;20500;-77
2021/05/18 14:26:26;;;;;;;2.45;2.05;;;;;;;15.02;65.88;101157.09;5024339;28;20045;-76
2021/05/18 14:28:51;;;;;;;2.60;1.73;;;;;;;15.60;64.26;101160.50;5024730;28;20041;-77
2021/05/18 14:31:17;;;;;;;2.30;1.45;;;;;;;16.09;60.50;101155.03;5025096;28;20057;-78
2021/05/18 14:33:44;;;;;;;3.42;1.60;;;;;;;16.70;60.07;101154.34;4999013;28;20077;-77
2021/05/18 14:36:10;;;;;;;1.23;0.82;;;;;;;16.85;50.45;101151.78;5034518;28;20053;-79
2021/05/18 14:38:39;;;;;;;0.50;0.50;;;;;;;17.36;51.67;101141.38;5022674;28;20030;-78
2021/05/18 14:44:04;;;;;;;3.70;0.80;;;;;;;19.74;43.59;101143.22;4984246;28;20506;-77
2021/05/18 14:46:37;;;;;;;1.00;0.77;;;;;;;20.05;43.46;101147.22;5025032;28;20504;-78
2021/05/18 14:56:49;;;;;;;0.60;0.57;;;;;;;20.75;37.95;101157.66;5027227;28;21543;-78
2021/05/18 14:59:15;;;;;;;1.35;0.60;;;;;;;20.73;41.13;101157.84;5012773;28;20049;-76
2021/05/18 15:01:40;;;;;;;0.75;0.50;;;;;;;20.66;41.16;101156.22;5007678;28;20069;-78
2021/05/18 15:04:06;;;;;;;2.00;0.80;;;;;;;20.03;40.44;101163.38;5023812;28;20567;-79
2021/05/18 15:06:32;;;;;;;1.10;1.00;;;;;;;19.86;40.34;101153.28;5024998;28;20045;-78
2021/05/18 15:08:58;;;;;;;3.28;0.80;;;;;;;20.48;41.44;101164.78;5022438;28;20042;-79
2021/05/18 15:11:24;;;;;;;2.65;0.85;;;;;;;20.05;43.58;101157.88;4992479;28;20092;-79
2021/05/18 15:13:49;;;;;;;0.80;0.63;;;;;;;19.33;41.89;101159.91;5023894;28;20396;-79
2021/05/18 15:16:15;;;;;;;0.52;0.52;;;;;;;18.44;45.98;101162.97;5025141;28;20370;-79
2021/05/18 15:18:40;;;;;;;1.20;0.80;;;;;;;17.27;47.40;101151.25;5027936;28;20056;-81
2021/05/18 15:21:06;;;;;;;2.50;0.60;;;;;;;16.42;52.99;101154.84;5037259;28;20104;-82
2021/05/18 15:23:34;;;;;;;1.48;0.80;;;;;;;16.68;53.01;101154.53;5017092;28;20049;-81
2021/05/18 15:25:59;;;;;;;2.10;0.80;;;;;;;16.40;56.18;101156.84;5018103;28;20121;-82
2021/05/18 15:28:25;;;;;;;1.95;0.70;;;;;;;15.99;54.25;101146.47;5027982;28;20177;-80
2021/05/18 15:30:50;;;;;;;2.05;0.85;;;;;;;15.63;54.06;101149.56;5032374;28;20126;-79
2021/05/18 15:33:16;;;;;;;4.93;1.00;;;;;;;15.26;54.22;101155.44;5022466;28;20132;-79
2021/05/18 15:35:41;;;;;;;2.30;1.02;;;;;;;14.84;59.21;101146.69;5028368;28;20125;-82
2021/05/18 15:38:07;;;;;;;2.30;1.00;;;;;;;14.63;57.35;101146.34;4992543;28;20149;-82
2021/05/18 15:40:33;;;;;;;1.80;0.90;;;;;;;14.49;57.41;101150.44;5010705;28;20057;-82
2021/05/18 15:42:58;;;;;;;2.05;0.80;;;;;;;14.50;62.50;101157.34;4995723;28;20034;-80
2021/05/18 15:45:24;;;;;;;2.33;1.20;;;;;;;14.36;58.23;101151.69;5025901;28;20181;-80
2021/05/18 15:47:50;;;;;;;3.22;1.00;;;;;;;14.39;63.27;101155.81;5004537;28;20056;-80
2021/05/18 15:50:15;;;;;;;0.90;0.85;;;;;;;14.39;59.81;101154.03;5025217;28;20105;-80
2021/05/18 15:52:41;;;;;;;3.70;0.90;;;;;;;14.45;59.83;101154.34;5034749;28;20041;-80
2021/05/18 15:55:08;;;;;;;1.77;1.00;;;;;;;14.55;60.76;101157.69;5018073;28;20046;-80
2021/05/18 15:57:34;;;;;;;1.50;1.27;;;;;;;14.57;62.32;101158.38;5033954;28;20511;-80
2021/05/18 16:00:00;;;;;;;2.50;1.20;;;;;;;14.72;62.09;101156.75;5041046;28;20041;-81
2021/05/18 16:02:25;;;;;;;2.83;1.10;;;;;;;14.70;63.01;101163.19;5032633;28;20041;-80
2021/05/18 16:04:51;;;;;;;4.22;1.10;;;;;;;14.65;61.40;101168.94;5015395;28;20080;-80
2021/05/18 16:07:18;;;;;;;2.88;1.30;;;;;;;14.37;63.26;101158.66;5043942;28;20050;-78
2021/05/18 16:09:44;;;;;;;4.10;1.30;;;;;;;14.26;64.58;101171.28;5016764;28;20048;-80
2021/05/18 16:12:14;;;;;;;1.92;1.20;;;;;;;14.06;65.72;101170.75;5008024;28;20096;-80
2021/05/18 16:14:40;;;;;;;1.45;1.35;;;;;;;13.85;65.50;101179.06;5015799;28;20171;-79
2021/05/18 16:17:06;;;;;;;1.50;1.40;;;;;;;13.58;68.81;101189.63;5013358;28;20517;-81
2021/05/18 16:19:44;;;;;;;3.13;1.52;;;;;;;13.29;70.28;101191.69;5025288;28;20176;-81
2021/05/18 16:22:09;;;;;;;2.50;1.55;;;;;;;13.09;70.48;101193.66;5029840;28;20582;-81
2021/05/18 16:24:35;;;;;;;4.15;1.55;;;;;;;12.77;74.51;101206.38;5030131;28;20037;-79
2021/05/18 16:27:00;;;;;;;3.78;1.75;;;;;;;12.60;76.60;101205.41;5010998;28;20482;-77